Latest Weather Observations for Bundaberg

IDQ60801

Issued at 1:02 pm EST Saturday 1 October 2016 (issued every 30 minutes, with the page automatically refreshed every 10 minutes)

About weather observations | Map of weather stations | Latest weather observations for QLD | Other Formats
Station Details ID: 039128 Name: BUNDABERG AERO Lat: -24.91 Lon: 152.32 Height: 30.82 m
Data from the previous 72 hours. | See also: Recent months at Bundaberg
Date/Time
EST
Temp
°C
App
Temp
°C
Dew
Point
°C
Rel
Hum
%
Delta-T
°C
Wind Press
QNH
hPa
Press
MSL
hPa
Rain since
9am
mm
Dir  Spd
km/h
Gust
km/h
Spd
kts
Gust
kts
01/01:00pm 27.4 23.0 4.5 23 11.6 WNW 17 28 9 15 1012.6 1012.5 0.0
01/12:30pm 27.0 22.8 5.9 26 11.0 WNW 17 30 9 16 1012.9 1012.8 0.0
01/12:00pm 27.1 23.3 6.0 26 11.0 NW 15 30 8 16 1013.1 1013.0 0.0
01/11:30am 25.5 21.4 4.6 26 10.5 WNW 15 20 8 11 1013.7 1013.6 0.0
01/11:00am 25.4 21.1 5.1 27 10.3 W 17 24 9 13 1014.3 1014.2 0.0
01/10:30am 24.2 20.4 4.0 27 10.0 WSW 13 26 7 14 1014.7 1014.6 0.0
01/10:00am 24.1 20.4 4.5 28 9.7 WSW 13 19 7 10 1014.9 1014.8 0.0
01/09:30am 23.5 19.6 5.4 31 9.1 W 15 24 8 13 1015.3 1015.2 0.0
01/09:00am 23.0 19.4 6.7 35 8.4 W 15 22 8 12 1015.6 1015.5 0.0
01/08:30am 21.8 18.8 6.1 36 7.9 WSW 11 17 6 9 1015.5 1015.4 0.0
01/08:00am 20.1 17.5 6.1 40 7.0 SW 9 13 5 7 1014.9 1014.8 0.0
01/07:30am 18.0 15.8 8.0 52 5.1 SW 9 13 5 7 1014.7 1014.6 0.0
01/07:00am 15.8 13.2 7.6 58 4.1 SW 11 13 6 7 1014.2 1014.1 0.0
01/06:30am 14.3 11.9 6.9 61 3.6 SSW 9 13 5 7 1013.3 1013.2 0.0
01/06:00am 12.7 10.3 7.0 68 2.7 SW 9 11 5 6 1013.1 1013.0 0.0
01/05:30am 10.2 7.8 6.9 80 1.6 WSW 9 11 5 6 1012.9 1012.8 0.0
01/05:00am 11.0 10.4 7.5 79 1.7 CALM 0 0 0 0 1012.3 1012.2 0.0
01/04:30am 11.3 10.7 7.6 78 1.8 CALM 0 6 0 3 1011.8 1011.7 0.0
01/04:00am 10.9 9.3 8.0 82 1.4 SW 6 9 3 5 1011.5 1011.4 0.0
01/03:30am 11.1 10.5 7.6 79 1.7 CALM 0 0 0 0 1011.2 1011.1 0.0
01/03:00am 11.4 11.0 8.3 81 1.5 CALM 0 0 0 0 1010.9 1010.8 0.0
01/02:30am 11.4 9.7 7.5 77 1.9 WSW 6 6 3 3 1010.9 1010.8 0.0
01/02:00am 12.2 10.7 8.3 77 1.9 W 6 7 3 4 1011.0 1010.9 0.0
01/01:30am 13.2 12.0 7.9 70 2.6 WSW 4 6 2 3 1011.3 1011.2 0.0
01/01:00am 14.0 11.7 7.5 65 3.2 WSW 9 11 5 6 1011.4 1011.3 0.0
01/12:30am 13.3 12.2 8.6 73 2.4 WSW 4 6 2 3 1011.6 1011.5 0.0
01/12:00am 14.2 11.8 8.8 70 2.7 SW 11 13 6 7 1011.5 1011.4 0.0
 
Date/Time
EST
Temp
°C
App
Temp
°C
Dew
Point
°C
Rel
Hum
%
Delta-T
°C
Wind Press
QNH
hPa
Press
MSL
hPa
Rain since
9am
mm
Dir  Spd
km/h
Gust
km/h
Spd
kts
Gust
kts
30/11:30pm 16.8 13.7 5.4 47 5.5 SW 11 13 6 7 1011.3 1011.2 0.0
30/11:00pm 15.1 14.5 8.8 66 3.2 N 2 7 1 4 1011.4 1011.3 0.0
30/10:30pm 17.1 15.9 6.3 49 5.3 SW 2 7 1 4 1011.2 1011.1 0.0
30/10:00pm 18.9 15.9 3.9 37 7.1 SW 9 11 5 6 1011.4 1011.3 0.0
30/09:30pm 16.0 14.2 8.0 59 4.0 SW 7 9 4 5 1011.3 1011.2 0.0
30/09:00pm 16.4 14.8 8.1 58 4.2 SSW 6 7 3 4 1010.9 1010.8 0.0
30/08:30pm 17.4 15.7 7.7 53 4.9 SSW 6 6 3 3 1010.6 1010.5 0.0
30/08:00pm 18.3 16.1 6.2 45 6.0 W 7 9 4 5 1010.0 1009.9 0.0
30/07:30pm 20.5 18.4 5.7 38 7.3 SSW 6 15 3 8 1009.5 1009.4 0.0
30/07:00pm 20.3 17.4 6.3 40 7.0 W 11 13 6 7 1008.6 1008.5 0.0
30/06:30pm 22.1 18.9 5.1 33 8.4 WNW 11 13 6 7 1008.2 1008.1 0.0
30/06:00pm 22.4 18.7 4.5 31 8.8 W 13 17 7 9 1007.6 1007.5 0.0
30/05:30pm 25.8 20.4 2.5 22 11.3 W 20 26 11 14 1006.8 1006.7 0.0
30/05:00pm 27.5 22.3 2.6 20 12.3 WSW 19 26 10 14 1006.3 1006.2 0.0
30/04:30pm 28.7 23.5 3.5 20 12.7 WNW 20 28 11 15 1005.9 1005.8 0.0
30/04:00pm 29.2 23.4 2.5 18 13.3 WNW 22 32 12 17 1005.4 1005.3 0.0
30/03:30pm 29.7 22.2 1.2 16 13.9 WNW 30 43 16 23 1005.2 1005.1 0.0
30/03:18pm 29.9 23.8 0.5 15 14.2 WNW 22 41 12 22 1005.1 1005.0 0.0
30/03:00pm 28.4 29.1 16.0 47 7.7 NNW 7 17 4 9 1005.3 1005.2 0.0
30/02:30pm 27.7 26.1 15.0 45 7.7 NNE 17 22 9 12 1005.4 1005.3 0.0
30/02:00pm 26.9 26.0 15.9 51 6.8 N 15 24 8 13 1005.7 1005.6 0.0
30/01:30pm 28.1 26.6 13.2 39 8.8 NW 13 24 7 13 1006.2 1006.1 0.0
30/01:00pm 27.7 23.5 12.5 39 8.9 WNW 26 37 14 20 1006.8 1006.7 0.0
30/12:30pm 27.1 23.6 13.4 42 8.1 WNW 24 35 13 19 1007.4 1007.3 0.0
30/12:00pm 26.1 23.3 12.5 42 7.9 W 19 28 10 15 1007.9 1007.8 0.0
30/11:30am 26.0 22.6 13.8 47 7.2 W 24 35 13 19 1008.1 1008.0 0.0
30/11:00am 25.6 23.3 14.1 49 6.8 WSW 19 28 10 15 1008.3 1008.2 0.0
30/10:30am 24.8 22.7 13.7 50 6.5 WSW 17 24 9 13 1008.8 1008.7 0.0
30/10:00am 23.3 20.5 13.2 53 5.9 WSW 20 28 11 15 1008.8 1008.7 0.0
30/09:30am 22.8 20.3 14.1 58 5.1 SW 20 26 11 14 1008.8 1008.7 0.0
30/09:00am 23.0 21.1 15.8 64 4.4 SW 20 28 11 15 1008.9 1008.8 12.2
30/08:30am 23.6 23.0 18.5 73 3.2 WSW 19 30 10 16 1008.6 1008.5 12.2
30/08:00am 23.2 23.0 19.4 79 2.4 WNW 19 26 10 14 1008.5 1008.4 12.2
30/07:30am 21.6 21.8 18.6 83 1.9 W 15 20 8 11 1008.4 1008.3 12.2
30/07:00am 20.6 20.8 18.5 88 1.3 NW 15 20 8 11 1007.9 1007.8 12.2
30/06:30am 20.2 21.2 18.7 91 0.9 NW 11 15 6 8 1007.6 1007.5 12.2
30/06:00am 19.3 20.4 18.1 93 0.7 NW 9 11 5 6 1007.3 1007.2 12.2
30/05:47am 19.2 19.9 17.9 92 0.8 NW 11 15 6 8 1007.2 1007.1 12.2
30/05:30am 19.1 19.7 17.8 92 0.8 NNW 11 13 6 7 1007.1 1007.0 12.2
30/05:26am 19.0 19.6 17.8 93 0.7 NNW 11 13 6 7 1007.1 1007.0 12.2
30/05:00am 19.0 19.4 17.3 90 1.0 NW 11 13 6 7 1006.8 1006.7 12.2
30/04:30am 19.3 20.1 17.4 89 1.2 NW 9 15 5 8 1006.8 1006.7 12.2
30/04:00am 19.1 19.6 17.4 90 1.0 NNW 11 13 6 7 1006.2 1006.1 12.2
30/03:30am 19.7 19.6 17.8 89 1.2 NNW 15 19 8 10 1006.6 1006.5 12.2
30/03:00am 20.4 20.5 18.3 88 1.3 NW 15 19 8 10 1006.6 1006.5 12.2
30/02:54am 20.7 20.5 18.6 88 1.3 NW 17 28 9 15 1006.7 1006.6 12.2
30/02:30am 21.0 20.4 19.7 92 0.8 NNW 22 32 12 17 1007.1 1007.0 12.2
30/02:00am 21.3 21.2 19.9 92 0.9 N 20 28 11 15 1007.2 1007.1 12.2
30/01:30am 20.6 21.0 19.8 95 0.5 NNE 17 20 9 11 1007.6 1007.5 12.2
30/01:02am 20.4 21.4 19.4 94 0.6 N 13 20 7 11 1008.1 1008.0 11.6
30/01:00am 20.4 21.5 19.6 95 0.5 N 13 20 7 11 1008.2 1008.1 11.6
30/12:45am 20.5 22.2 19.3 93 0.8 N 9 17 5 9 1008.4 1008.3 11.4
30/12:30am 20.5 20.6 19.2 92 0.8 NNE 17 24 9 13 1008.5 1008.4 10.6
30/12:00am 20.3 21.1 19.1 93 0.8 NNW 13 19 7 10 1009.0 1008.9 10.6
 
Date/Time
EST
Temp
°C
App
Temp
°C
Dew
Point
°C
Rel
Hum
%
Delta-T
°C
Wind Press
QNH
hPa
Press
MSL
hPa
Rain since
9am
mm
Dir  Spd
km/h
Gust
km/h
Spd
kts
Gust
kts
29/11:55pm 20.3 21.1 19.0 92 0.8 N 13 19 7 10 1009.1 1009.0 10.6
29/11:34pm 20.5 20.0 19.2 92 0.8 N 20 24 11 13 1009.3 1009.2 10.2
29/11:30pm 20.7 20.3 19.4 92 0.8 N 20 24 11 13 1009.3 1009.2 9.8
29/11:06pm 20.9 20.8 19.9 94 0.6 N 20 30 11 16 1009.2 1009.1 8.8
29/11:00pm 20.8 20.6 19.8 94 0.6 N 20 28 11 15 1009.2 1009.1 8.8
29/10:44pm 20.8 20.6 19.8 94 0.6 N 20 28 11 15 1009.2 1009.1 6.6
29/10:30pm 20.8 21.1 19.6 93 0.8 N 17 20 9 11 1009.3 1009.2 4.0
29/10:00pm 20.5 20.7 19.3 93 0.8 NNE 17 24 9 13 1009.5 1009.4 3.6
29/09:30pm 20.8 21.3 19.3 91 0.9 N 15 22 8 12 1009.8 1009.7 2.8
29/09:00pm 21.0 21.6 19.5 91 1.0 N 15 20 8 11 1009.9 1009.8 2.8
29/08:30pm 20.7 21.7 19.5 93 0.8 N 13 17 7 9 1009.9 1009.8 2.8
29/08:00pm 20.7 21.2 19.2 91 0.9 N 15 20 8 11 1009.4 1009.3 2.2
29/07:30pm 20.8 20.9 19.1 90 1.1 N 17 22 9 12 1009.5 1009.4 2.2
29/07:00pm 20.8 21.2 19.1 90 1.1 N 15 17 8 9 1009.1 1009.0 2.2
29/06:30pm 20.7 20.5 18.6 88 1.3 NNE 17 24 9 13 1008.6 1008.5 2.2
29/06:00pm 20.8 20.3 18.6 87 1.4 NNE 19 30 10 16 1008.3 1008.2 2.0
29/05:30pm 20.6 20.3 18.2 86 1.5 NNE 17 20 9 11 1008.2 1008.1 1.8
29/05:00pm 20.8 19.3 17.6 82 2.0 NNE 22 30 12 16 1008.2 1008.1 1.6
29/04:30pm 20.6 18.7 18.5 88 1.3 NNE 26 35 14 19 1008.1 1008.0 1.4
29/04:00pm 21.3 21.3 18.1 82 2.0 N 15 19 8 10 1009.0 1008.9 0.2
29/03:30pm 21.6 21.5 17.8 79 2.4 N 15 19 8 10 1008.5 1008.4 0.0
29/03:00pm 21.9 21.3 17.5 76 2.7 N 17 22 9 12 1008.3 1008.2 0.0
29/02:30pm 22.4 20.8 17.5 74 3.0 N 22 28 12 15 1008.4 1008.3 0.0
29/02:00pm 22.5 20.3 16.8 70 3.5 N 24 32 13 17 1008.9 1008.8 0.0
29/01:30pm 22.7 20.3 16.3 67 3.9 NNW 24 30 13 16 1009.5 1009.4 0.0
29/01:00pm 23.1 19.5 16.2 65 4.2 NNW 30 39 16 21 1009.8 1009.7 0.0
29/12:30pm 23.5 19.0 15.5 60 4.8 N 33 43 18 23 1009.7 1009.6 0.0
29/12:00pm 23.9 20.1 15.7 60 5.0 NNW 30 39 16 21 1010.1 1010.0 0.0
29/11:30am 24.0 19.4 15.0 57 5.4 NNW 33 41 18 22 1010.2 1010.1 0.0
29/11:00am 24.6 18.6 15.5 57 5.5 N 41 50 22 27 1010.3 1010.2 0.0
29/10:30am 25.5 19.4 15.2 53 6.2 N 41 54 22 29 1010.3 1010.2 0.0
29/10:18am 25.4 19.7 15.1 53 6.2 NNW 39 57 21 31 1010.5 1010.4 0.0
29/10:00am 25.2 20.8 16.6 59 5.3 N 35 46 19 25 1010.5 1010.4 0.0
29/09:30am 24.2 19.4 15.7 59 5.1 N 35 46 19 25 1010.6 1010.5 0.0
29/09:00am 23.9 18.6 15.4 59 5.1 N 37 50 20 27 1010.4 1010.3 0.0
29/08:30am 25.0 20.2 14.5 52 6.3 N 33 44 18 24 1010.6 1010.5 0.0
29/08:00am 23.7 20.1 15.2 59 5.1 NNW 28 37 15 20 1010.7 1010.6 0.0
29/07:30am 21.8 20.4 15.6 68 3.7 N 17 20 9 11 1010.5 1010.4 0.0
29/07:00am 20.3 19.6 15.5 74 2.9 NNW 13 17 7 9 1010.8 1010.7 0.0
29/06:30am 18.8 18.8 15.3 80 2.1 NNW 9 11 5 6 1010.5 1010.4 0.0
29/06:00am 18.6 17.6 14.7 78 2.3 NNW 13 15 7 8 1010.6 1010.5 0.0
29/05:30am 18.2 17.4 14.1 77 2.4 NNW 11 13 6 7 1010.6 1010.5 0.0
29/05:00am 18.9 17.6 13.7 72 3.0 N 13 15 7 8 1010.4 1010.3 0.0
29/04:30am 19.2 17.8 13.4 69 3.3 N 13 17 7 9 1010.4 1010.3 0.0
29/04:00am 18.5 17.7 12.9 70 3.2 N 9 11 5 6 1010.4 1010.3 0.0
29/03:30am 18.0 16.9 13.1 73 2.8 N 11 13 6 7 1010.6 1010.5 0.0
29/03:00am 17.9 16.7 12.8 72 2.9 NNW 11 13 6 7 1010.9 1010.8 0.0
29/02:30am 17.6 16.4 12.7 73 2.7 NNW 11 13 6 7 1011.0 1010.9 0.0
29/02:00am 17.7 16.5 12.8 73 2.7 NW 11 13 6 7 1011.2 1011.1 0.0
29/01:30am 18.0 16.8 12.9 72 2.9 NNW 11 13 6 7 1011.2 1011.1 0.0
29/01:00am 17.8 16.2 12.9 73 2.7 NNW 13 15 7 8 1011.5 1011.4 0.0
29/12:30am 17.7 16.0 12.6 72 2.8 NNW 13 15 7 8 1012.1 1012.0 0.0
29/12:00am 17.8 16.6 12.7 72 2.8 NNW 11 13 6 7 1012.4 1012.3 0.0
 
Date/Time
EST
Temp
°C
App
Temp
°C
Dew
Point
°C
Rel
Hum
%
Delta-T
°C
Wind Press
QNH
hPa
Press
MSL
hPa
Rain since
9am
mm
Dir  Spd
km/h
Gust
km/h
Spd
kts
Gust
kts
28/11:30pm 18.5 16.8 12.3 67 3.4 NNW 13 17 7 9 1012.6 1012.5 0.0
28/11:00pm 17.9 16.2 12.4 70 3.1 NNW 13 13 7 7 1012.9 1012.8 0.0
28/10:30pm 17.3 15.5 12.2 72 2.8 NW 13 17 7 9 1013.3 1013.2 0.0
28/10:00pm 17.9 16.2 12.4 70 3.1 NNW 13 15 7 8 1013.1 1013.0 0.0
28/09:30pm 18.8 18.0 13.0 69 3.3 NNW 9 11 5 6 1012.8 1012.7 0.0
28/09:00pm 19.5 18.8 13.2 67 3.6 N 9 13 5 7 1012.5 1012.4 0.0
28/08:30pm 19.3 18.4 12.6 65 3.8 N 9 13 5 7 1012.6 1012.5 0.0
28/08:00pm 19.2 17.5 12.5 65 3.8 N 13 17 7 9 1012.4 1012.3 0.0
28/07:30pm 18.4 15.9 12.2 67 3.4 NNW 17 19 9 10 1012.5 1012.4 0.0
28/07:00pm 19.9 17.3 11.9 60 4.4 N 17 20 9 11 1012.3 1012.2 0.0
28/06:30pm 20.8 18.4 11.4 55 5.2 N 15 20 8 11 1011.9 1011.8 0.0
28/06:00pm 21.6 18.1 11.0 51 5.9 N 20 24 11 13 1011.8 1011.7 0.0
28/05:30pm 22.3 18.3 10.5 47 6.5 N 22 28 12 15 1011.5 1011.4 0.0
28/05:00pm 23.1 18.0 9.1 41 7.5 N 26 35 14 19 1011.1 1011.0 0.0
28/04:30pm 24.4 19.7 9.2 38 8.2 N 24 35 13 19 1010.8 1010.7 0.0
28/04:00pm 25.1 18.9 6.3 30 9.7 N 28 35 15 19 1010.4 1010.3 0.0
28/03:30pm 26.2 20.4 6.3 28 10.4 N 26 33 14 18 1010.3 1010.2 0.0
28/03:00pm 26.2 20.7 5.7 27 10.6 N 24 33 13 18 1010.5 1010.4 0.0
28/02:30pm 26.5 20.9 7.0 29 10.3 N 26 32 14 17 1010.9 1010.8 0.0
28/02:00pm 27.1 21.0 6.5 27 10.8 NNE 28 37 15 20 1011.0 1010.9 0.0
28/01:30pm 28.4 25.2 3.3 20 12.6 E 9 17 5 9 1011.5 1011.4 0.0

Other Formats:

Comma delimited format used in spreadsheet applications
http://www.bom.gov.au/fwo/IDQ60801/IDQ60801.94387.axf

JavaScript Object Notation format (JSON) in row-major order
http://www.bom.gov.au/fwo/IDQ60801/IDQ60801.94387.json